Time;durP1;ratioP1;P1;durP2;ratioP2;P2;SDS_P1;SDS_P2;PMS_P1;PMS_P2;Temp;Humidity;BMP_temperature;BMP_pressure;BME280_temperature;BME280_humidity;BME280_pressure;Samples;Min_cycle;Max_cycle;Signal;HPM_P1;HPM_P2
2024/01/05 00:00:12;;;;;;;13.05;6.60;;;;;;;2.44;100.00;99827.66;4932489;29;20399;-81
2024/01/05 00:02:41;;;;;;;10.07;5.20;;;;;;;2.34;100.00;99827.53;4914075;29;20050;-82
2024/01/05 00:05:09;;;;;;;10.63;5.72;;;;;;;2.29;100.00;99820.63;4917461;29;20449;-84
2024/01/05 00:07:35;;;;;;;9.23;5.60;;;;;;;2.30;100.00;99817.16;4914980;29;20085;-82
2024/01/05 00:10:02;;;;;;;10.25;6.22;;;;;;;2.35;100.00;99818.91;4915278;29;20143;-83
2024/01/05 00:12:28;;;;;;;8.57;5.00;;;;;;;2.36;100.00;99812.91;4917626;29;20078;-82
2024/01/05 00:14:55;;;;;;;9.52;6.45;;;;;;;2.40;100.00;99806.94;4918266;29;20345;-83
2024/01/05 00:17:21;;;;;;;10.07;6.50;;;;;;;2.40;100.00;99809.50;4917296;29;20082;-83
2024/01/05 00:19:48;;;;;;;9.93;6.13;;;;;;;2.40;100.00;99801.75;4919516;29;20058;-84
2024/01/05 00:22:14;;;;;;;9.93;5.88;;;;;;;2.36;100.00;99803.47;4916558;29;20520;-82
2024/01/05 00:24:43;;;;;;;10.85;6.30;;;;;;;2.46;100.00;99794.06;4916966;29;20063;-83
2024/01/05 00:27:10;;;;;;;8.63;6.75;;;;;;;2.44;100.00;99794.06;4944573;29;20044;-84
2024/01/05 00:29:38;;;;;;;9.73;6.40;;;;;;;2.32;100.00;99791.34;4917262;29;20492;-84
2024/01/05 00:32:05;;;;;;;9.77;5.90;;;;;;;2.35;100.00;99793.09;4914032;29;20079;-82
2024/01/05 00:34:31;;;;;;;12.82;6.32;;;;;;;2.24;100.00;99790.41;4915418;29;20078;-83
2024/01/05 00:36:58;;;;;;;9.43;6.28;;;;;;;2.29;100.00;99788.75;4928070;29;20628;-83
2024/01/05 00:39:25;;;;;;;8.43;5.40;;;;;;;2.35;100.00;99785.34;4917230;29;20110;-81
2024/01/05 00:41:52;;;;;;;9.30;5.60;;;;;;;2.35;100.00;99793.97;4930385;29;20082;-83
2024/01/05 00:44:18;;;;;;;9.30;6.90;;;;;;;2.32;100.00;99778.44;4925419;29;20502;-84
2024/01/05 00:46:45;;;;;;;10.23;6.57;;;;;;;2.37;100.00;99781.94;4927446;29;20051;-84
2024/01/05 00:49:11;;;;;;;12.07;7.57;;;;;;;2.42;100.00;99774.25;4914012;29;20420;-84
2024/01/05 00:51:38;;;;;;;8.85;5.88;;;;;;;2.51;100.00;99770.88;4928091;29;20480;-82
2024/01/05 00:54:04;;;;;;;9.60;5.43;;;;;;;2.47;100.00;99781.16;4930444;29;20047;-83
2024/01/05 00:56:31;;;;;;;11.13;6.18;;;;;;;2.54;100.00;99771.75;4920181;29;20051;-83
2024/01/05 00:59:00;;;;;;;15.27;6.13;;;;;;;2.57;100.00;99768.34;4929529;29;20067;-83
2024/01/05 01:01:27;;;;;;;10.70;6.28;;;;;;;2.55;100.00;99764.91;4926052;29;20134;-83
2024/01/05 01:03:54;;;;;;;9.70;5.78;;;;;;;2.59;100.00;99764.91;4941142;29;20115;-80
2024/01/05 01:06:20;;;;;;;9.52;6.50;;;;;;;2.62;100.00;99759.81;4924593;29;20052;-82
2024/01/05 01:08:47;;;;;;;16.55;7.13;;;;;;;2.61;100.00;99762.38;4911410;29;20071;-82
2024/01/05 01:11:15;;;;;;;9.25;5.45;;;;;;;2.50;100.00;99753.66;4921113;29;20154;-82
2024/01/05 01:13:43;;;;;;;10.80;6.15;;;;;;;2.50;100.00;99756.22;4932003;29;20062;-82
2024/01/05 01:16:11;;;;;;;11.57;6.47;;;;;;;2.49;100.00;99755.38;4939587;29;20074;-82
2024/01/05 01:18:41;;;;;;;13.07;7.53;;;;;;;2.46;100.00;99755.34;4927049;29;20049;-83
2024/01/05 01:21:07;;;;;;;10.45;6.15;;;;;;;2.49;100.00;99752.78;4904796;29;20086;-82
2024/01/05 01:23:34;;;;;;;10.95;6.13;;;;;;;2.60;100.00;99751.16;4911840;29;20404;-81
2024/01/05 01:26:00;;;;;;;12.38;7.60;;;;;;;2.63;100.00;99746.03;4929871;29;20531;-82
2024/01/05 01:28:27;;;;;;;17.38;6.90;;;;;;;2.62;100.00;99741.72;4924306;29;20043;-81
2024/01/05 01:30:54;;;;;;;12.48;6.50;;;;;;;2.61;100.00;99744.28;4916787;29;20061;-83
2024/01/05 01:33:21;;;;;;;13.82;7.50;;;;;;;2.67;100.00;99739.16;4907379;29;20138;-82
2024/01/05 01:35:47;;;;;;;10.55;6.93;;;;;;;2.70;100.00;99734.03;4926064;29;20086;-82
2024/01/05 01:38:14;;;;;;;12.57;6.35;;;;;;;2.73;100.00;99735.78;4926527;29;20079;-84
2024/01/05 01:40:48;;;;;;;10.98;6.88;;;;;;;2.66;100.00;99729.69;4922964;29;20063;-82
2024/01/05 01:43:33;;;;;;;11.90;6.30;;;;;;;2.78;100.00;99728.91;4924094;29;20379;-82
2024/01/05 01:46:03;;;;;;;10.77;7.07;;;;;;;2.78;100.00;99728.91;4912805;29;20058;-82
2024/01/05 01:48:30;;;;;;;15.23;7.05;;;;;;;2.65;100.00;99727.94;4921437;29;20047;-82
2024/01/05 01:50:57;;;;;;;16.27;6.82;;;;;;;2.73;100.00;99728.03;4928055;29;20161;-82
2024/01/05 01:53:27;;;;;;;12.95;7.05;;;;;;;2.78;100.00;99723.75;4922502;29;20177;-82
2024/01/05 01:55:54;;;;;;;18.23;6.85;;;;;;;2.66;100.00;99721.94;4910206;29;20055;-82
2024/01/05 01:58:22;;;;;;;12.45;6.72;;;;;;;2.73;100.00;99709.94;4925884;29;20047;-82
2024/01/05 02:00:50;;;;;;;11.50;6.47;;;;;;;2.84;100.00;99708.25;4911570;29;20577;-81
2024/01/05 02:03:17;;;;;;;16.13;7.75;;;;;;;2.84;100.00;99713.44;4912762;29;20062;-82
2024/01/05 02:05:45;;;;;;;10.93;6.25;;;;;;;2.92;100.00;99705.72;4910832;29;20408;-82
2024/01/05 02:08:12;;;;;;;14.30;7.20;;;;;;;2.90;100.00;99705.72;4934966;29;20201;-83
2024/01/05 02:10:42;;;;;;;15.50;7.85;;;;;;;2.93;100.00;99704.88;4928633;29;20052;-82
2024/01/05 02:13:11;;;;;;;14.35;7.80;;;;;;;2.81;100.00;99703.09;4911445;29;20150;-82
2024/01/05 02:15:38;;;;;;;14.98;7.60;;;;;;;2.70;100.00;99691.78;4925321;29;20680;-82
2024/01/05 02:18:15;;;;;;;11.45;6.70;;;;;;;2.68;100.00;99686.63;4914775;29;20504;-81
2024/01/05 02:20:44;;;;;;;13.70;6.32;;;;;;;2.68;100.00;99680.59;4920105;29;20078;-82
2024/01/05 02:23:26;;;;;;;12.00;6.32;;;;;;;2.67;100.00;99678.88;4902051;29;20055;-83
2024/01/05 02:25:52;;;;;;;18.20;8.98;;;;;;;2.61;100.00;99664.19;4916786;29;20059;-82
2024/01/05 02:28:20;;;;;;;11.80;6.72;;;;;;;2.56;100.00;99671.03;4916535;29;20047;-83
2024/01/05 02:30:47;;;;;;;15.80;8.40;;;;;;;2.55;100.00;99667.56;4931166;29;20043;-82
2024/01/05 02:33:13;;;;;;;13.65;7.05;;;;;;;2.51;100.00;99659.81;4920407;29;20048;-83
2024/01/05 02:35:40;;;;;;;13.68;7.75;;;;;;;2.48;100.00;99647.72;4930951;29;20050;-81
2024/01/05 02:38:07;;;;;;;16.05;7.18;;;;;;;2.42;100.00;99650.25;4930944;29;20051;-84
2024/01/05 02:40:36;;;;;;;15.32;6.93;;;;;;;2.44;100.00;99646.84;4932458;29;20352;-83
2024/01/05 02:43:03;;;;;;;13.38;7.45;;;;;;;2.29;100.00;99642.41;4913660;29;20056;-82
2024/01/05 02:45:31;;;;;;;13.48;7.25;;;;;;;2.42;100.00;99638.19;4928096;29;20095;-82
2024/01/05 02:47:57;;;;;;;13.13;7.95;;;;;;;2.40;100.00;99629.59;4929208;29;20466;-82
2024/01/05 02:50:23;;;;;;;16.67;7.78;;;;;;;2.45;100.00;99634.78;4934526;29;20051;-82
2024/01/05 02:52:50;;;;;;;12.50;7.78;;;;;;;2.46;100.00;99629.63;4909240;29;20150;-82
2024/01/05 02:55:17;;;;;;;14.75;7.50;;;;;;;2.34;100.00;99626.09;4909264;29;20075;-82
2024/01/05 02:57:43;;;;;;;16.42;7.50;;;;;;;2.30;100.00;99630.38;4915752;29;20078;-83
2024/01/05 03:00:11;;;;;;;14.95;8.25;;;;;;;2.42;100.00;99625.28;4913580;29;20070;-82
2024/01/05 03:02:37;;;;;;;12.75;7.07;;;;;;;2.42;100.00;99624.41;4913556;29;20146;-82
2024/01/05 03:05:10;;;;;;;15.13;8.05;;;;;;;2.45;100.00;99614.97;4916040;29;20051;-82
2024/01/05 03:07:37;;;;;;;15.52;8.48;;;;;;;2.35;100.00;99607.13;4908161;29;20055;-82
2024/01/05 03:10:04;;;;;;;12.85;7.22;;;;;;;2.31;100.00;99603.69;4926769;29;20050;-82
2024/01/05 03:12:30;;;;;;;13.38;8.00;;;;;;;2.34;100.00;99614.03;4922134;29;20126;-82
2024/01/05 03:14:57;;;;;;;17.77;8.38;;;;;;;2.37;100.00;99613.19;4933002;29;20051;-83
2024/01/05 03:17:23;;;;;;;15.10;8.15;;;;;;;2.38;100.00;99613.19;4940376;29;20051;-83
2024/01/05 03:19:50;;;;;;;17.10;8.80;;;;;;;2.41;100.00;99622.69;4924893;29;20050;-82
2024/01/05 03:22:16;;;;;;;16.45;7.35;;;;;;;2.32;100.00;99626.06;4927838;29;20048;-82
2024/01/05 03:24:43;;;;;;;17.75;7.60;;;;;;;2.39;100.00;99621.84;4918376;29;20048;-82
2024/01/05 03:27:13;;;;;;;13.18;7.55;;;;;;;2.27;100.00;99627.75;4940540;29;20074;-82
2024/01/05 03:29:40;;;;;;;12.73;7.72;;;;;;;2.27;100.00;99651.00;4930091;29;20076;-82
2024/01/05 03:32:08;;;;;;;13.10;8.10;;;;;;;2.31;100.00;99655.34;4941132;29;20126;-81
2024/01/05 03:34:34;;;;;;;12.43;7.30;;;;;;;2.30;100.00;99646.72;4922985;29;20071;-84
2024/01/05 03:37:01;;;;;;;15.50;7.25;;;;;;;2.27;100.00;99638.94;4948714;29;20079;-82
2024/01/05 03:39:27;;;;;;;15.52;8.43;;;;;;;2.22;100.00;99629.44;4941186;29;20517;-82
2024/01/05 03:41:55;;;;;;;15.25;8.82;;;;;;;2.24;100.00;99644.09;4926553;29;20131;-82
2024/01/05 03:44:23;;;;;;;14.93;7.63;;;;;;;2.28;100.00;99632.06;4924203;29;20119;-82
2024/01/05 03:46:51;;;;;;;14.43;8.25;;;;;;;2.26;100.00;99632.03;4918993;29;20062;-83
2024/01/05 03:49:18;;;;;;;15.50;8.70;;;;;;;2.28;100.00;99622.59;4914226;29;20047;-83
2024/01/05 03:51:45;;;;;;;17.98;9.77;;;;;;;2.22;100.00;99622.53;4912847;29;20059;-82
2024/01/05 03:54:12;;;;;;;14.68;8.85;;;;;;;2.19;100.00;99614.78;4927806;29;20500;-82
2024/01/05 03:56:46;;;;;;;21.30;8.77;;;;;;;2.20;100.00;99613.06;4928638;29;20580;-83
2024/01/05 03:59:13;;;;;;;18.42;9.27;;;;;;;2.23;100.00;99598.47;4909562;29;20743;-82
2024/01/05 04:01:49;;;;;;;19.65;9.90;;;;;;;2.22;100.00;99604.47;4910160;29;20054;-82
2024/01/05 04:04:16;;;;;;;16.88;8.52;;;;;;;2.25;100.00;99596.75;4924545;29;20047;-83
2024/01/05 04:06:42;;;;;;;17.15;8.60;;;;;;;2.22;100.00;99585.53;4910963;29;20474;-82
2024/01/05 04:09:12;;;;;;;15.23;9.27;;;;;;;2.24;100.00;99573.50;4905986;29;20086;-82
2024/01/05 04:11:39;;;;;;;13.30;7.55;;;;;;;2.27;100.00;99576.13;4929179;29;20055;-82
2024/01/05 04:14:08;;;;;;;14.50;8.35;;;;;;;2.26;100.00;99572.66;4944160;28;20115;-82
2024/01/05 04:16:34;;;;;;;15.57;9.77;;;;;;;2.30;100.00;99564.06;4933736;29;20170;-82
2024/01/05 04:19:02;;;;;;;18.67;9.00;;;;;;;2.34;100.00;99559.78;4908953;29;20095;-82
2024/01/05 04:21:28;;;;;;;14.95;9.18;;;;;;;2.26;100.00;99562.31;4913969;29;20388;-81
2024/01/05 04:23:58;;;;;;;15.65;8.07;;;;;;;2.29;100.00;99561.47;4925548;29;20047;-82
2024/01/05 04:26:25;;;;;;;17.00;8.18;;;;;;;2.29;100.00;99552.03;4911364;29;20119;-83
2024/01/05 04:28:52;;;;;;;12.48;7.60;;;;;;;2.28;100.00;99552.88;4912530;29;20051;-82
2024/01/05 04:31:24;;;;;;;14.25;7.28;;;;;;;2.30;100.00;99548.56;4917533;29;20079;-81
2024/01/05 04:33:50;;;;;;;19.20;8.38;;;;;;;2.38;100.00;99540.03;4928233;29;20051;-81
2024/01/05 04:36:20;;;;;;;15.55;8.52;;;;;;;2.35;100.00;99538.28;4905479;29;20039;-83
2024/01/05 04:38:46;;;;;;;14.60;8.18;;;;;;;2.36;100.00;99531.38;4946625;29;20050;-81
2024/01/05 04:41:15;;;;;;;19.35;7.90;;;;;;;2.33;100.00;99524.50;4912399;29;20055;-82
2024/01/05 04:43:44;;;;;;;13.25;6.72;;;;;;;2.32;100.00;99517.59;4921701;29;20432;-82
2024/01/05 04:46:11;;;;;;;13.02;8.13;;;;;;;2.27;100.00;99514.16;4927162;29;20056;-81
2024/01/05 04:48:37;;;;;;;13.73;7.88;;;;;;;2.28;100.00;99514.16;4915144;29;20074;-83
2024/01/05 04:51:04;;;;;;;13.07;8.38;;;;;;;2.33;100.00;99515.88;4921899;29;20055;-81
2024/01/05 04:53:31;;;;;;;15.55;7.45;;;;;;;2.33;100.00;99511.56;4916522;29;20160;-82
2024/01/05 04:55:57;;;;;;;14.23;7.75;;;;;;;2.38;100.00;99520.22;4913220;29;20493;-82
2024/01/05 04:58:24;;;;;;;14.32;8.20;;;;;;;2.39;100.00;99515.94;4926019;29;20141;-81
2024/01/05 05:00:51;;;;;;;15.45;8.75;;;;;;;2.37;100.00;99510.72;4911656;29;20745;-82
2024/01/05 05:03:17;;;;;;;13.48;8.18;;;;;;;2.38;100.00;99509.88;4928537;29;20508;-81
2024/01/05 05:05:44;;;;;;;15.85;8.82;;;;;;;2.42;100.00;99511.63;4914533;29;20052;-81
2024/01/05 05:08:13;;;;;;;12.07;7.13;;;;;;;2.42;100.00;99506.47;4925139;29;20519;-82
2024/01/05 05:10:40;;;;;;;18.55;8.48;;;;;;;2.48;100.00;99500.47;4930147;29;20051;-82
2024/01/05 05:13:06;;;;;;;15.20;8.20;;;;;;;2.40;100.00;99500.44;4946741;29;20127;-83
2024/01/05 05:15:33;;;;;;;13.30;8.23;;;;;;;2.49;100.00;99499.63;4946581;29;20027;-82
2024/01/05 05:17:59;;;;;;;15.32;8.63;;;;;;;2.46;100.00;99497.91;4930214;29;20051;-83
2024/01/05 05:20:26;;;;;;;14.23;9.68;;;;;;;2.40;100.00;99496.97;4927800;29;20627;-82
2024/01/05 05:22:52;;;;;;;16.25;9.07;;;;;;;2.41;100.00;99502.19;4928667;29;20103;-83
2024/01/05 05:25:19;;;;;;;14.88;8.13;;;;;;;2.45;100.00;99495.28;4911927;29;20249;-83
2024/01/05 05:27:45;;;;;;;13.43;8.57;;;;;;;2.43;100.00;99502.19;4922615;29;20110;-83
2024/01/05 05:30:12;;;;;;;15.95;8.60;;;;;;;2.44;100.00;99494.44;4914450;29;20524;-83
2024/01/05 05:32:39;;;;;;;17.00;9.30;;;;;;;2.50;100.00;99495.31;4911848;29;20052;-83
2024/01/05 05:35:06;;;;;;;17.70;9.68;;;;;;;2.45;100.00;99487.53;4926251;29;20073;-83
2024/01/05 05:37:35;;;;;;;17.30;8.85;;;;;;;2.54;100.00;99491.88;4916304;29;20082;-83
2024/01/05 05:40:03;;;;;;;17.85;9.35;;;;;;;2.59;100.00;99485.03;4928701;29;20094;-83
2024/01/05 05:42:29;;;;;;;18.75;9.25;;;;;;;2.55;100.00;99489.31;4915732;29;20089;-82
2024/01/05 05:44:56;;;;;;;16.30;9.30;;;;;;;2.58;100.00;99489.34;4926224;29;20051;-83
2024/01/05 05:47:22;;;;;;;18.48;10.55;;;;;;;2.45;100.00;99480.66;4915261;29;20048;-83
2024/01/05 05:49:49;;;;;;;17.02;9.63;;;;;;;2.55;100.00;99480.72;4934440;29;20055;-83
2024/01/05 05:52:15;;;;;;;18.42;10.13;;;;;;;2.58;100.00;99479.00;4926271;29;20161;-82
2024/01/05 05:54:43;;;;;;;17.02;9.60;;;;;;;2.62;100.00;99485.91;4928217;29;20099;-83
2024/01/05 05:57:12;;;;;;;21.52;11.98;;;;;;;2.57;100.00;99482.44;4916120;29;20048;-83
2024/01/05 05:59:39;;;;;;;18.33;9.75;;;;;;;2.60;100.00;99487.63;4917595;29;20138;-83
2024/01/05 06:02:05;;;;;;;18.38;10.80;;;;;;;2.64;100.00;99486.75;4931227;29;20059;-83
2024/01/05 06:04:32;;;;;;;17.60;9.65;;;;;;;2.64;100.00;99480.75;4933092;29;20049;-83
2024/01/05 06:06:58;;;;;;;24.30;11.73;;;;;;;2.71;100.00;99481.63;4937717;29;20047;-83
2024/01/05 06:09:26;;;;;;;18.35;9.70;;;;;;;2.75;100.00;99491.13;4925982;29;20039;-83
2024/01/05 06:11:53;;;;;;;15.32;9.20;;;;;;;2.71;100.00;99484.22;4928366;29;20051;-83
2024/01/05 06:14:19;;;;;;;15.43;9.65;;;;;;;2.72;100.00;99489.38;4925079;29;20579;-83
2024/01/05 06:16:46;;;;;;;19.10;9.88;;;;;;;2.77;100.00;99482.50;4928550;29;20055;-84
2024/01/05 06:19:13;;;;;;;17.63;9.05;;;;;;;2.79;100.00;99480.81;4922518;29;20115;-82
2024/01/05 06:21:40;;;;;;;16.42;9.40;;;;;;;2.85;100.00;99486.88;4925482;29;20257;-84
2024/01/05 06:24:06;;;;;;;17.70;9.60;;;;;;;2.80;100.00;99484.25;4923804;29;20508;-83
2024/01/05 06:26:33;;;;;;;18.27;9.48;;;;;;;2.82;100.00;99498.06;4913631;29;20047;-82
2024/01/05 06:28:59;;;;;;;15.25;9.40;;;;;;;2.86;100.00;99491.19;4930355;29;20130;-83
2024/01/05 06:31:26;;;;;;;14.75;9.30;;;;;;;2.87;100.00;99493.75;4925867;29;20051;-83
2024/01/05 06:33:52;;;;;;;16.40;9.48;;;;;;;2.85;100.00;99495.47;4913412;29;20051;-83
2024/01/05 06:36:19;;;;;;;21.88;11.05;;;;;;;2.88;100.00;99489.44;4914881;29;20051;-83
2024/01/05 06:38:48;;;;;;;18.75;9.45;;;;;;;2.91;100.00;99485.16;4907260;29;20560;-83
2024/01/05 06:41:14;;;;;;;16.70;9.73;;;;;;;3.00;100.00;99473.09;4924414;29;20047;-85
2024/01/05 06:43:41;;;;;;;18.33;10.38;;;;;;;3.00;100.00;99462.78;4942118;29;20071;-83
2024/01/05 06:46:08;;;;;;;16.13;9.60;;;;;;;2.97;100.00;99456.75;4910252;29;20101;-83
2024/01/05 06:48:34;;;;;;;15.32;9.45;;;;;;;2.96;100.00;99438.66;4898015;29;20043;-84
2024/01/05 06:51:00;;;;;;;14.85;8.73;;;;;;;3.01;100.00;99455.00;4912148;29;20079;-82
2024/01/05 06:53:29;;;;;;;13.68;8.68;;;;;;;3.01;100.00;99457.59;4928534;29;20043;-84
2024/01/05 06:55:56;;;;;;;16.25;9.00;;;;;;;3.04;100.00;99464.50;4925747;29;20146;-83
2024/01/05 06:58:23;;;;;;;19.77;9.48;;;;;;;3.03;100.00;99455.88;4926915;29;20055;-84
2024/01/05 07:00:51;;;;;;;19.80;10.25;;;;;;;3.04;100.00;99455.03;4926432;29;20039;-84
2024/01/05 07:03:17;;;;;;;14.80;8.52;;;;;;;3.00;100.00;99452.44;4910686;29;20583;-83
2024/01/05 07:05:44;;;;;;;19.02;9.90;;;;;;;3.08;100.00;99453.34;4935789;29;20088;-84
2024/01/05 07:08:10;;;;;;;19.25;9.60;;;;;;;3.11;100.00;99453.31;4911249;29;20079;-83
2024/01/05 07:10:37;;;;;;;17.25;9.40;;;;;;;3.12;100.00;99455.91;4922951;29;20799;-83
2024/01/05 07:13:07;;;;;;;21.90;9.90;;;;;;;3.13;100.00;99442.13;4911878;29;20150;-83
2024/01/05 07:15:34;;;;;;;15.10;8.32;;;;;;;3.17;100.00;99439.53;4911987;29;20048;-83
2024/01/05 07:18:00;;;;;;;16.25;10.38;;;;;;;3.08;100.00;99437.81;4933967;29;20051;-87
2024/01/05 07:20:27;;;;;;;20.30;8.55;;;;;;;3.15;100.00;99436.94;4912207;29;20051;-83
2024/01/05 07:22:54;;;;;;;16.33;9.02;;;;;;;3.18;100.00;99434.38;4922893;29;20059;-84
2024/01/05 07:25:20;;;;;;;15.80;8.55;;;;;;;3.21;100.00;99438.69;4930108;29;20048;-83
2024/01/05 07:27:47;;;;;;;14.18;8.25;;;;;;;3.18;100.00;99430.91;4936651;29;20051;-84
2024/01/05 07:30:16;;;;;;;16.70;9.80;;;;;;;3.20;100.00;99421.44;4914264;29;20129;-83
2024/01/05 07:32:43;;;;;;;16.77;8.48;;;;;;;3.23;100.00;99419.72;4918852;29;20063;-82
2024/01/05 07:35:10;;;;;;;19.50;9.20;;;;;;;3.26;100.00;99421.44;4921399;29;20047;-84
2024/01/05 07:37:38;;;;;;;13.75;8.45;;;;;;;3.26;100.00;99411.97;4933629;29;20050;-83
2024/01/05 07:40:06;;;;;;;17.63;9.13;;;;;;;3.27;100.00;99418.00;4920482;29;20070;-83
2024/01/05 07:42:32;;;;;;;14.55;8.68;;;;;;;3.21;100.00;99421.44;4933893;29;20059;-84
2024/01/05 07:45:00;;;;;;;13.13;7.82;;;;;;;3.25;100.00;99415.41;4930578;29;20044;-84
2024/01/05 07:47:30;;;;;;;13.07;7.63;;;;;;;3.32;100.00;99426.63;4931895;29;20051;-83
2024/01/05 07:49:57;;;;;;;12.25;7.30;;;;;;;3.30;100.00;99420.59;4917135;29;20075;-83
2024/01/05 07:52:23;;;;;;;14.43;7.63;;;;;;;3.34;100.00;99422.31;4909681;29;20539;-83
2024/01/05 07:54:50;;;;;;;14.75;7.15;;;;;;;3.31;100.00;99417.13;4917040;29;20098;-83
2024/01/05 07:57:16;;;;;;;17.58;6.25;;;;;;;3.25;100.00;99414.56;4913057;29;20047;-83
2024/01/05 07:59:46;;;;;;;11.13;7.47;;;;;;;3.31;100.00;99411.97;4915745;29;20052;-82
2024/01/05 08:02:12;;;;;;;11.73;7.30;;;;;;;3.33;100.00;99406.81;4932627;29;20044;-82
2024/01/05 08:04:40;;;;;;;12.40;7.57;;;;;;;3.30;100.00;99397.31;4931145;29;20572;-83
2024/01/05 08:07:07;;;;;;;11.35;6.65;;;;;;;3.38;100.00;99398.19;4918923;29;20499;-83
2024/01/05 08:09:33;;;;;;;11.63;6.35;;;;;;;3.41;100.00;99387.81;4924905;29;20051;-84
2024/01/05 08:12:00;;;;;;;14.20;6.50;;;;;;;3.37;100.00;99390.44;4930071;29;20059;-82
2024/01/05 08:14:26;;;;;;;13.35;6.80;;;;;;;3.35;100.00;99385.25;4914823;29;20463;-83
2024/01/05 08:16:53;;;;;;;14.30;7.05;;;;;;;3.46;100.00;99395.59;4911504;29;20051;-84
2024/01/05 08:19:20;;;;;;;15.85;7.05;;;;;;;3.46;100.00;99391.28;4946820;29;20043;-83
2024/01/05 08:21:46;;;;;;;12.80;8.05;;;;;;;3.45;100.00;99394.72;4932441;29;20059;-84
2024/01/05 08:24:13;;;;;;;12.35;7.70;;;;;;;3.43;100.00;99401.63;4926327;28;20047;-82
2024/01/05 08:26:43;;;;;;;13.45;7.90;;;;;;;3.46;100.00;99398.19;4919360;29;20049;-82
2024/01/05 08:29:10;;;;;;;15.38;7.97;;;;;;;3.51;100.00;99393.00;4928080;29;20414;-82
2024/01/05 08:31:36;;;;;;;13.00;7.43;;;;;;;3.48;100.00;99391.25;4929291;29;20058;-82
2024/01/05 08:34:03;;;;;;;12.45;6.95;;;;;;;3.52;100.00;99410.25;4928775;29;20074;-82
2024/01/05 08:36:29;;;;;;;18.42;7.82;;;;;;;3.58;100.00;99408.50;4925664;29;20576;-83
2024/01/05 08:38:56;;;;;;;14.95;8.35;;;;;;;3.55;100.00;99412.84;4926690;29;20059;-83
2024/01/05 08:41:22;;;;;;;12.57;6.63;;;;;;;3.62;100.00;99419.72;4914011;29;20057;-85
2024/01/05 08:43:49;;;;;;;12.43;7.28;;;;;;;3.56;100.00;99414.53;4937868;29;20054;-83
2024/01/05 08:46:16;;;;;;;13.35;6.15;;;;;;;3.62;100.00;99412.84;4922867;29;20044;-83
2024/01/05 08:48:45;;;;;;;12.93;7.03;;;;;;;3.63;100.00;99405.94;4911354;29;20055;-83
2024/01/05 08:51:12;;;;;;;9.88;6.78;;;;;;;3.61;100.00;99407.66;4928188;29;20043;-83
2024/01/05 08:53:38;;;;;;;11.20;6.60;;;;;;;3.61;100.00;99410.22;4912530;29;20051;-83
2024/01/05 08:56:05;;;;;;;13.32;6.88;;;;;;;3.62;100.00;99414.56;4931131;29;20039;-83
2024/01/05 08:58:31;;;;;;;15.57;7.15;;;;;;;3.57;100.00;99424.03;4942719;29;20465;-84
2024/01/05 09:00:58;;;;;;;10.05;6.97;;;;;;;3.56;100.00;99430.06;4926832;29;20059;-83
2024/01/05 09:03:25;;;;;;;15.90;6.78;;;;;;;3.62;100.00;99420.63;4932838;29;20059;-83
2024/01/05 09:05:53;;;;;;;13.38;6.65;;;;;;;3.60;100.00;99421.47;4918514;29;20110;-85
2024/01/05 09:08:20;;;;;;;12.68;6.78;;;;;;;3.63;100.00;99424.03;4927737;29;20043;-84
2024/01/05 09:10:49;;;;;;;11.85;6.95;;;;;;;3.60;100.00;99424.06;4914298;29;20064;-82
2024/01/05 09:13:15;;;;;;;11.50;6.78;;;;;;;3.66;100.00;99424.03;4930528;29;20051;-84
2024/01/05 09:15:42;;;;;;;13.45;6.85;;;;;;;3.71;100.00;99424.03;4930407;29;20408;-83
2024/01/05 09:18:09;;;;;;;12.05;7.15;;;;;;;3.68;100.00;99427.50;4919909;29;20043;-83
2024/01/05 09:20:40;;;;;;;9.57;6.80;;;;;;;3.67;100.00;99424.91;4916520;29;20062;-84
2024/01/05 09:23:07;;;;;;;12.88;6.15;;;;;;;3.63;100.00;99422.31;4923908;29;20067;-84
2024/01/05 09:25:33;;;;;;;9.10;5.82;;;;;;;3.70;100.00;99430.94;4938097;29;20051;-84
2024/01/05 09:28:06;;;;;;;9.07;6.63;;;;;;;3.74;100.00;99432.69;4938867;29;20135;-84
2024/01/05 09:30:32;;;;;;;13.85;6.47;;;;;;;3.76;100.00;99437.84;4936673;29;20091;-83
2024/01/05 09:33:05;;;;;;;7.82;6.43;;;;;;;3.75;100.00;99439.56;4921308;29;20047;-84
2024/01/05 09:35:32;;;;;;;12.30;6.72;;;;;;;3.77;100.00;99435.25;4933941;29;20054;-84
2024/01/05 09:37:59;;;;;;;9.43;6.47;;;;;;;3.75;100.00;99433.53;4932634;29;20051;-83
2024/01/05 09:40:26;;;;;;;10.32;6.25;;;;;;;3.80;100.00;99435.22;4919692;29;20160;-84
2024/01/05 09:42:54;;;;;;;9.07;6.18;;;;;;;3.80;100.00;99427.47;4930176;29;20055;-84
2024/01/05 09:45:22;;;;;;;8.05;5.40;;;;;;;3.72;100.00;99424.03;4928014;29;20039;-82
2024/01/05 09:47:50;;;;;;;10.27;6.22;;;;;;;3.83;100.00;99420.56;4917044;29;20517;-84
2024/01/05 09:50:18;;;;;;;10.27;5.93;;;;;;;3.88;100.00;99408.50;4926335;29;20048;-83
2024/01/05 09:52:45;;;;;;;10.85;6.20;;;;;;;3.79;100.00;99411.94;4929160;29;20505;-84
2024/01/05 09:55:12;;;;;;;8.95;6.00;;;;;;;3.86;100.00;99415.38;4913778;29;20430;-83
2024/01/05 09:57:42;;;;;;;9.07;5.90;;;;;;;3.90;100.00;99412.81;4927948;29;20078;-84
2024/01/05 10:00:14;;;;;;;9.02;6.45;;;;;;;3.89;100.00;99408.47;4925277;29;20146;-83
2024/01/05 10:02:57;;;;;;;11.05;6.57;;;;;;;3.96;100.00;99409.31;4927561;29;20166;-83
2024/01/05 10:05:25;;;;;;;9.18;5.75;;;;;;;4.02;100.00;99405.88;4910222;28;20066;-84
2024/01/05 10:07:51;;;;;;;7.97;5.13;;;;;;;4.05;100.00;99404.13;4930184;29;20047;-83
2024/01/05 10:10:20;;;;;;;10.95;6.30;;;;;;;4.19;100.00;99409.28;4925672;29;20127;-82
2024/01/05 10:12:47;;;;;;;9.55;5.72;;;;;;;4.30;100.00;99391.09;4908348;29;20500;-83
2024/01/05 10:15:14;;;;;;;10.50;6.85;;;;;;;4.19;100.00;99382.53;4931096;29;20047;-82
2024/01/05 10:17:40;;;;;;;10.05;6.03;;;;;;;4.16;100.00;99383.41;4906800;29;20321;-82
2024/01/05 10:20:17;;;;;;;12.35;5.82;;;;;;;4.22;100.00;99398.03;4927795;29;20040;-83
2024/01/05 10:22:46;;;;;;;8.68;5.75;;;;;;;4.16;100.00;99380.81;4927191;29;20071;-82
2024/01/05 10:25:21;;;;;;;10.65;6.03;;;;;;;4.29;100.00;99376.44;4938481;29;20130;-82
2024/01/05 10:27:50;;;;;;;6.57;5.78;;;;;;;4.34;100.00;99379.00;4914359;29;20552;-83
2024/01/05 10:30:28;;;;;;;7.97;5.82;;;;;;;4.35;100.00;99373.81;4913289;29;20050;-84
2024/01/05 10:33:08;;;;;;;11.23;5.63;;;;;;;4.25;100.00;99359.16;4913014;29;20075;-83
2024/01/05 10:35:35;;;;;;;9.50;6.68;;;;;;;4.33;100.00;99366.91;4914264;29;20047;-84
2024/01/05 10:38:13;;;;;;;6.45;4.97;;;;;;;4.26;100.00;99371.25;4926287;29;20051;-84
2024/01/05 10:40:43;;;;;;;7.82;5.57;;;;;;;4.32;100.00;99360.03;4939453;28;20043;-84
2024/01/05 10:43:17;;;;;;;8.90;5.07;;;;;;;4.33;100.00;99353.94;4907617;29;20056;-84
2024/01/05 10:45:49;;;;;;;7.70;4.85;;;;;;;4.43;100.00;99348.75;4881721;29;20043;-84
2024/01/05 10:48:16;;;;;;;10.77;5.50;;;;;;;4.49;100.00;99347.00;4925789;29;20062;-84
2024/01/05 10:50:45;;;;;;;11.60;6.05;;;;;;;4.42;100.00;99347.00;4892761;29;20047;-82
2024/01/05 10:53:13;;;;;;;6.57;4.57;;;;;;;4.46;100.00;99345.28;4916455;29;20048;-84
2024/01/05 10:55:42;;;;;;;7.47;5.55;;;;;;;4.44;100.00;99342.66;4912666;29;20390;-83
2024/01/05 10:58:08;;;;;;;6.55;5.25;;;;;;;4.40;100.00;99334.94;4898419;29;20047;-83
2024/01/05 11:00:39;;;;;;;10.32;5.78;;;;;;;4.45;100.00;99336.63;4911340;29;20044;-83
2024/01/05 11:03:10;;;;;;;10.77;6.47;;;;;;;4.47;100.00;99339.19;4913338;29;20156;-83
2024/01/05 11:05:41;;;;;;;11.25;7.63;;;;;;;4.58;100.00;99333.97;4894326;29;20058;-83
2024/01/05 11:08:37;;;;;;;12.13;7.18;;;;;;;4.88;100.00;99324.28;4914158;29;20047;-83
2024/01/05 11:11:18;;;;;;;16.08;7.55;;;;;;;4.79;100.00;99320.84;4891616;29;20048;-82
2024/01/05 11:14:25;;;;;;;11.55;7.82;;;;;;;4.78;100.00;99332.13;4938496;29;20070;-82
2024/01/05 11:17:26;;;;;;;9.18;5.90;;;;;;;5.03;100.00;99320.69;4918808;29;20077;-84
2024/01/05 11:20:20;;;;;;;10.80;7.10;;;;;;;5.05;100.00;99318.97;4912681;29;20055;-84
2024/01/05 11:22:48;;;;;;;;;;;;;;;5.01;100.00;99312.94;4901106;29;20271;-84
2024/01/05 11:25:18;;;;;;;9.63;6.55;;;;;;;5.31;100.00;99305.75;4896831;29;20014;-84
2024/01/05 11:27:46;;;;;;;10.73;7.38;;;;;;;5.40;100.00;99300.47;4903643;29;20704;-84
2024/01/05 11:30:14;;;;;;;9.60;6.60;;;;;;;5.34;100.00;99304.88;4915388;29;20046;-84